Totoro — FG4097 — position and weather

sailwx.info

Track history (hours):
 
Tides and Currents Weather Stations Pressure Air Temp Water Temp Dewpoint Dewpoint Depression Visibility Wind Speed Wind Dir Waves Ship Positions

Totoro

Last reported at 2018-Jul-03 16:54 UTC. Time now 2018-Jul-22 20:12 UTC.
Position N 38°32' W 028°37'.
Warning: this ship's position is 19 days out of date.

Length 15 m.

Type: Sailing vessel. MMSI: 227106940.

Date/timePositionNaut miles runAvg speedWind from/ knotsBaromVisibWave heightAir tempDewpointWater temp
2018-Jul-03 16:54N 38°32' W 028°37'0 0.0
2018-Jul-03 16:29N 38°32' W 028°37'1 2.8
2018-Jul-03 16:01N 38°33' W 028°36'2 4.5
2018-Jul-03 15:30N 38°33' W 028°33'2 3.9
2018-Jul-03 15:00N 38°34' W 028°31'2 3.8
2018-Jul-03 14:29N 38°35' W 028°29'2 4.8
2018-Jul-03 14:00N 38°36' W 028°26'3 6.7
2018-Jul-03 13:30N 38°37' W 028°22'2 4.3
2018-Jul-03 13:00N 38°38' W 028°20'3 5.2
2018-Jul-03 12:30N 38°39' W 028°17'3 5.2
2018-Jul-03 12:00N 38°40' W 028°13'1 2.2
2018-Jul-03 11:24N 38°41' W 028°12'  
2018-Jun-29 14:32N 38°41' W 028°12'0 0.0
2018-Jun-28 20:33N 38°41' W 028°12'0 0.1
2018-Jun-28 20:27N 38°41' W 028°12'1 3.0
2018-Jun-28 20:00N 38°40' W 028°11'2 4.2
2018-Jun-28 19:30N 38°39' W 028°09'2 3.0
2018-Jun-28 19:00N 38°37' W 028°08'2 4.1
2018-Jun-28 18:30N 38°35' W 028°09'2 4.4
2018-Jun-28 18:00N 38°33' W 028°10'2 5.0
2018-Jun-28 17:30N 38°31' W 028°10'1 2.7
2018-Jun-28 17:00N 38°31' W 028°09'2 4.2
2018-Jun-28 16:30N 38°31' W 028°06'2 4.2
2018-Jun-28 15:58N 38°31' W 028°03'2 4.1
2018-Jun-28 15:28N 38°31' W 028°01'2 3.6
2018-Jun-28 15:00N 38°31' W 027°58'2 4.5
2018-Jun-28 14:30N 38°31' W 027°56'3 5.1
2018-Jun-28 14:00N 38°31' W 027°52'2 4.1
2018-Jun-28 13:30N 38°31' W 027°50'2 3.8
2018-Jun-28 12:58N 38°31' W 027°47'1 3.1
2018-Jun-28 12:30N 38°31' W 027°45'  
Track history (hours):
 
Tides and Currents Weather Stations Pressure Air Temp Water Temp Dewpoint Dewpoint Depression Visibility Wind Speed Wind Dir Waves Ship Positions

Totoro

Last reported at 2018-Jul-03 16:54 UTC. Time now 2018-Jul-22 20:12 UTC.
Position N 38°32' W 028°37'.
Warning: this ship's position is 19 days out of date.

Length 15 m.

Type: Sailing vessel. MMSI: 227106940.

Date/timePositionNaut miles runAvg speedWind from/ knotsBaromVisibWave heightAir tempDewpointWater temp
2018-Jul-03 16:54N 38°32' W 028°37'0 0.0
2018-Jul-03 16:29N 38°32' W 028°37'1 2.8
2018-Jul-03 16:01N 38°33' W 028°36'2 4.5
2018-Jul-03 15:30N 38°33' W 028°33'2 3.9
2018-Jul-03 15:00N 38°34' W 028°31'2 3.8
2018-Jul-03 14:29N 38°35' W 028°29'2 4.8
2018-Jul-03 14:00N 38°36' W 028°26'3 6.7
2018-Jul-03 13:30N 38°37' W 028°22'2 4.3
2018-Jul-03 13:00N 38°38' W 028°20'3 5.2
2018-Jul-03 12:30N 38°39' W 028°17'3 5.2
2018-Jul-03 12:00N 38°40' W 028°13'1 2.2
2018-Jul-03 11:24N 38°41' W 028°12'  
2018-Jun-29 14:32N 38°41' W 028°12'0 0.0
2018-Jun-28 20:33N 38°41' W 028°12'0 0.1
2018-Jun-28 20:27N 38°41' W 028°12'1 3.0
2018-Jun-28 20:00N 38°40' W 028°11'2 4.2
2018-Jun-28 19:30N 38°39' W 028°09'2 3.0
2018-Jun-28 19:00N 38°37' W 028°08'2 4.1
2018-Jun-28 18:30N 38°35' W 028°09'2 4.4
2018-Jun-28 18:00N 38°33' W 028°10'2 5.0
2018-Jun-28 17:30N 38°31' W 028°10'1 2.7
2018-Jun-28 17:00N 38°31' W 028°09'2 4.2
2018-Jun-28 16:30N 38°31' W 028°06'2 4.2
2018-Jun-28 15:58N 38°31' W 028°03'2 4.1
2018-Jun-28 15:28N 38°31' W 028°01'2 3.6
2018-Jun-28 15:00N 38°31' W 027°58'2 4.5
2018-Jun-28 14:30N 38°31' W 027°56'3 5.1
2018-Jun-28 14:00N 38°31' W 027°52'2 4.1
2018-Jun-28 13:30N 38°31' W 027°50'2 3.8
2018-Jun-28 12:58N 38°31' W 027°47'1 3.1
2018-Jun-28 12:30N 38°31' W 027°45'  

Dump ship's entire track history